sensor_id;sensor_type;location;lat;lon;timestamp;pressure;altitude;pressure_sealevel;temperature;humidity
24422;BME280;12600;53.326;-6.298;2023-11-21T00:02:52;102029.63;;;9.85;75.99
24422;BME280;12600;53.326;-6.298;2023-11-21T00:05:41;102031.25;;;9.86;76.38
24422;BME280;12600;53.326;-6.298;2023-11-21T00:08:31;102034.28;;;9.85;76.44
24422;BME280;12600;53.326;-6.298;2023-11-21T00:11:20;102019.25;;;9.77;76.23
24422;BME280;12600;53.326;-6.298;2023-11-21T00:14:09;102031.25;;;9.76;76.83
24422;BME280;12600;53.326;-6.298;2023-11-21T00:16:59;102029.63;;;9.75;76.87
24422;BME280;12600;53.326;-6.298;2023-11-21T00:19:50;102018.16;;;9.73;76.76
24422;BME280;12600;53.326;-6.298;2023-11-21T00:22:40;102037.25;;;9.73;77.06
24422;BME280;12600;53.326;-6.298;2023-11-21T00:25:30;102022.78;;;9.67;77.01
24422;BME280;12600;53.326;-6.298;2023-11-21T00:28:20;102026.63;;;9.71;76.97
24422;BME280;12600;53.326;-6.298;2023-11-21T00:31:10;102025.50;;;9.67;77.15
24422;BME280;12600;53.326;-6.298;2023-11-21T00:33:59;102034.00;;;9.71;77.30
24422;BME280;12600;53.326;-6.298;2023-11-21T00:36:50;102045.44;;;9.68;77.06
24422;BME280;12600;53.326;-6.298;2023-11-21T00:39:41;102054.16;;;9.70;76.91
24422;BME280;12600;53.326;-6.298;2023-11-21T00:42:30;102062.34;;;9.65;77.17
24422;BME280;12600;53.326;-6.298;2023-11-21T00:45:21;102075.75;;;9.76;76.71
24422;BME280;12600;53.326;-6.298;2023-11-21T00:48:11;102076.81;;;9.70;76.68
24422;BME280;12600;53.326;-6.298;2023-11-21T00:51:01;102089.09;;;9.68;76.90
24422;BME280;12600;53.326;-6.298;2023-11-21T00:53:52;102094.53;;;9.68;76.60
24422;BME280;12600;53.326;-6.298;2023-11-21T00:56:41;102095.09;;;9.65;76.64
24422;BME280;12600;53.326;-6.298;2023-11-21T00:59:30;102087.69;;;9.60;76.81
24422;BME280;12600;53.326;-6.298;2023-11-21T01:02:20;102092.34;;;9.60;76.82
24422;BME280;12600;53.326;-6.298;2023-11-21T01:05:09;102093.97;;;9.56;76.88
24422;BME280;12600;53.326;-6.298;2023-11-21T01:07:59;102102.16;;;9.56;76.69
24422;BME280;12600;53.326;-6.298;2023-11-21T01:10:50;102109.47;;;9.45;77.19
24422;BME280;12600;53.326;-6.298;2023-11-21T01:13:39;102114.66;;;9.46;77.13
24422;BME280;12600;53.326;-6.298;2023-11-21T01:16:29;102107.53;;;9.40;77.20
24422;BME280;12600;53.326;-6.298;2023-11-21T01:19:20;102132.09;;;9.40;77.39
24422;BME280;12600;53.326;-6.298;2023-11-21T01:22:10;102133.69;;;9.31;77.85
24422;BME280;12600;53.326;-6.298;2023-11-21T01:25:00;102131.47;;;9.28;78.06
24422;BME280;12600;53.326;-6.298;2023-11-21T01:27:53;102144.50;;;9.21;78.78
24422;BME280;12600;53.326;-6.298;2023-11-21T01:30:42;102143.16;;;9.18;79.10
24422;BME280;12600;53.326;-6.298;2023-11-21T01:33:32;102148.88;;;9.17;78.94
24422;BME280;12600;53.326;-6.298;2023-11-21T01:36:21;102142.06;;;9.19;78.91
24422;BME280;12600;53.326;-6.298;2023-11-21T01:39:11;102140.94;;;9.15;79.12
24422;BME280;12600;53.326;-6.298;2023-11-21T01:42:04;102153.78;;;9.20;78.86
24422;BME280;12600;53.326;-6.298;2023-11-21T01:44:55;102131.09;;;9.09;79.07
24422;BME280;12600;53.326;-6.298;2023-11-21T01:47:45;102145.06;;;9.18;78.92
24422;BME280;12600;53.326;-6.298;2023-11-21T01:50:35;102148.25;;;9.10;79.20
24422;BME280;12600;53.326;-6.298;2023-11-21T01:53:25;102149.91;;;9.11;79.07
24422;BME280;12600;53.326;-6.298;2023-11-21T01:56:15;102151.31;;;9.18;78.89
24422;BME280;12600;53.326;-6.298;2023-11-21T01:59:05;102162.50;;;9.22;78.73
24422;BME280;12600;53.326;-6.298;2023-11-21T02:01:56;102165.72;;;9.14;79.16
24422;BME280;12600;53.326;-6.298;2023-11-21T02:04:45;102174.44;;;9.11;79.53
24422;BME280;12600;53.326;-6.298;2023-11-21T02:07:35;102175.31;;;9.16;78.76
24422;BME280;12600;53.326;-6.298;2023-11-21T02:10:25;102175.31;;;9.16;78.61
24422;BME280;12600;53.326;-6.298;2023-11-21T02:13:15;102176.88;;;9.07;79.04
24422;BME280;12600;53.326;-6.298;2023-11-21T02:16:06;102180.13;;;9.04;79.29
24422;BME280;12600;53.326;-6.298;2023-11-21T02:18:58;102190.75;;;9.06;79.34
24422;BME280;12600;53.326;-6.298;2023-11-21T02:21:49;102172.97;;;8.98;79.61
24422;BME280;12600;53.326;-6.298;2023-11-21T02:24:41;102187.47;;;9.04;79.37
24422;BME280;12600;53.326;-6.298;2023-11-21T02:27:31;102185.88;;;9.08;79.24
24422;BME280;12600;53.326;-6.298;2023-11-21T02:30:21;102186.38;;;9.05;78.97
24422;BME280;12600;53.326;-6.298;2023-11-21T02:33:10;102199.19;;;9.04;78.96
24422;BME280;12600;53.326;-6.298;2023-11-21T02:36:00;102219.69;;;9.07;78.60
24422;BME280;12600;53.326;-6.298;2023-11-21T02:38:49;102232.72;;;9.00;79.05
24422;BME280;12600;53.326;-6.298;2023-11-21T02:41:40;102235.44;;;9.00;78.86
24422;BME280;12600;53.326;-6.298;2023-11-21T02:44:30;102234.56;;;8.94;78.68
24422;BME280;12600;53.326;-6.298;2023-11-21T02:47:19;102244.66;;;8.93;79.15
24422;BME280;12600;53.326;-6.298;2023-11-21T02:50:09;102241.03;;;8.88;79.44
24422;BME280;12600;53.326;-6.298;2023-11-21T02:52:59;102243.16;;;8.81;79.30
24422;BME280;12600;53.326;-6.298;2023-11-21T02:55:48;102254.06;;;8.81;79.57
24422;BME280;12600;53.326;-6.298;2023-11-21T02:58:43;102263.53;;;8.73;79.59
24422;BME280;12600;53.326;-6.298;2023-11-21T03:01:32;102264.59;;;8.72;79.50
24422;BME280;12600;53.326;-6.298;2023-11-21T03:04:23;102266.97;;;8.63;79.34
24422;BME280;12600;53.326;-6.298;2023-11-21T03:07:14;102272.69;;;8.62;79.68
24422;BME280;12600;53.326;-6.298;2023-11-21T03:10:05;102273.44;;;8.57;79.46
24422;BME280;12600;53.326;-6.298;2023-11-21T03:12:54;102264.97;;;8.54;79.53
24422;BME280;12600;53.326;-6.298;2023-11-21T03:15:46;102279.94;;;8.51;79.77
24422;BME280;12600;53.326;-6.298;2023-11-21T03:18:36;102276.88;;;8.48;80.07
24422;BME280;12600;53.326;-6.298;2023-11-21T03:21:26;102274.97;;;8.48;80.07
24422;BME280;12600;53.326;-6.298;2023-11-21T03:24:17;102283.41;;;8.47;80.06
24422;BME280;12600;53.326;-6.298;2023-11-21T03:27:07;102267.50;;;8.38;80.16
24422;BME280;12600;53.326;-6.298;2023-11-21T03:29:57;102294.75;;;8.38;80.60
24422;BME280;12600;53.326;-6.298;2023-11-21T03:32:48;102296.91;;;8.36;80.62
24422;BME280;12600;53.326;-6.298;2023-11-21T03:35:38;102303.19;;;8.37;80.53
24422;BME280;12600;53.326;-6.298;2023-11-21T03:38:30;102302.34;;;8.36;80.70
24422;BME280;12600;53.326;-6.298;2023-11-21T03:41:19;102294.91;;;8.32;80.96
24422;BME280;12600;53.326;-6.298;2023-11-21T03:44:08;102290.78;;;8.29;81.31
24422;BME280;12600;53.326;-6.298;2023-11-21T03:46:58;102279.56;;;8.26;81.26
24422;BME280;12600;53.326;-6.298;2023-11-21T03:49:49;102285.88;;;8.26;81.05
24422;BME280;12600;53.326;-6.298;2023-11-21T03:52:38;102286.44;;;8.28;81.17
24422;BME280;12600;53.326;-6.298;2023-11-21T03:55:28;102309.03;;;8.29;81.52
24422;BME280;12600;53.326;-6.298;2023-11-21T03:58:19;102312.56;;;8.29;81.74
24422;BME280;12600;53.326;-6.298;2023-11-21T04:01:08;102323.72;;;8.28;81.47
24422;BME280;12600;53.326;-6.298;2023-11-21T04:03:57;102324.72;;;8.22;81.43
24422;BME280;12600;53.326;-6.298;2023-11-21T04:06:48;102337.19;;;8.18;81.88
24422;BME280;12600;53.326;-6.298;2023-11-21T04:09:40;102327.88;;;8.13;82.48
24422;BME280;12600;53.326;-6.298;2023-11-21T04:12:29;102326.00;;;8.14;82.99
24422;BME280;12600;53.326;-6.298;2023-11-21T04:15:19;102321.06;;;8.11;82.41
24422;BME280;12600;53.326;-6.298;2023-11-21T04:18:08;102329.72;;;8.08;82.91
24422;BME280;12600;53.326;-6.298;2023-11-21T04:20:57;102328.63;;;8.09;83.08
24422;BME280;12600;53.326;-6.298;2023-11-21T04:23:48;102320.91;;;8.01;83.11
24422;BME280;12600;53.326;-6.298;2023-11-21T04:26:38;102324.22;;;8.03;83.53
24422;BME280;12600;53.326;-6.298;2023-11-21T04:29:27;102327.75;;;8.03;83.55
24422;BME280;12600;53.326;-6.298;2023-11-21T04:32:17;102323.69;;;8.06;83.68
24422;BME280;12600;53.326;-6.298;2023-11-21T04:35:07;102345.78;;;8.09;83.73
24422;BME280;12600;53.326;-6.298;2023-11-21T04:37:57;102338.44;;;8.10;83.53
24422;BME280;12600;53.326;-6.298;2023-11-21T04:40:48;102340.75;;;8.18;83.29
24422;BME280;12600;53.326;-6.298;2023-11-21T04:43:38;102346.44;;;8.17;83.09
24422;BME280;12600;53.326;-6.298;2023-11-21T04:46:27;102359.31;;;8.21;83.49
24422;BME280;12600;53.326;-6.298;2023-11-21T04:49:17;102324.22;;;8.03;83.40
24422;BME280;12600;53.326;-6.298;2023-11-21T04:52:06;102371.84;;;8.22;83.52
24422;BME280;12600;53.326;-6.298;2023-11-21T04:54:57;102372.66;;;8.23;83.25
24422;BME280;12600;53.326;-6.298;2023-11-21T04:57:48;102375.94;;;8.25;83.15
24422;BME280;12600;53.326;-6.298;2023-11-21T05:00:37;102374.66;;;8.27;83.31
24422;BME280;12600;53.326;-6.298;2023-11-21T05:03:26;102365.88;;;8.25;83.10
24422;BME280;12600;53.326;-6.298;2023-11-21T05:06:18;102363.16;;;8.25;82.98
24422;BME280;12600;53.326;-6.298;2023-11-21T05:09:08;102372.16;;;8.26;83.31
24422;BME280;12600;53.326;-6.298;2023-11-21T05:12:00;102373.81;;;8.27;83.22
24422;BME280;12600;53.326;-6.298;2023-11-21T05:14:50;102375.72;;;8.26;83.45
24422;BME280;12600;53.326;-6.298;2023-11-21T05:17:40;102373.81;;;8.27;83.39
24422;BME280;12600;53.326;-6.298;2023-11-21T05:20:31;102393.19;;;8.30;83.71
24422;BME280;12600;53.326;-6.298;2023-11-21T05:23:21;102401.94;;;8.32;83.67
24422;BME280;12600;53.326;-6.298;2023-11-21T05:26:10;102400.03;;;8.33;83.13
24422;BME280;12600;53.326;-6.298;2023-11-21T05:29:00;102404.19;;;8.35;83.03
24422;BME280;12600;53.326;-6.298;2023-11-21T05:31:50;102406.97;;;8.40;82.93
24422;BME280;12600;53.326;-6.298;2023-11-21T05:34:41;102406.41;;;8.38;82.98
24422;BME280;12600;53.326;-6.298;2023-11-21T05:37:31;102414.84;;;8.37;83.16
24422;BME280;12600;53.326;-6.298;2023-11-21T05:40:20;102411.13;;;8.26;83.10
24422;BME280;12600;53.326;-6.298;2023-11-21T05:43:10;102428.19;;;8.38;83.32
24422;BME280;12600;53.326;-6.298;2023-11-21T05:45:59;102438.00;;;8.39;83.01
24422;BME280;12600;53.326;-6.298;2023-11-21T05:48:50;102432.47;;;8.34;82.99
24422;BME280;12600;53.326;-6.298;2023-11-21T05:51:39;102437.94;;;8.34;83.17
24422;BME280;12600;53.326;-6.298;2023-11-21T05:54:29;102450.38;;;8.30;83.12
24422;BME280;12600;53.326;-6.298;2023-11-21T05:57:18;102448.81;;;8.34;83.31
24422;BME280;12600;53.326;-6.298;2023-11-21T06:00:10;102444.13;;;8.30;83.57
24422;BME280;12600;53.326;-6.298;2023-11-21T06:03:03;102436.19;;;8.28;83.59
24422;BME280;12600;53.326;-6.298;2023-11-21T06:05:55;102446.28;;;8.28;83.46
24422;BME280;12600;53.326;-6.298;2023-11-21T06:08:45;102448.41;;;8.26;83.86
24422;BME280;12600;53.326;-6.298;2023-11-21T06:11:34;102440.47;;;8.24;83.51
24422;BME280;12600;53.326;-6.298;2023-11-21T06:14:23;102449.56;;;8.13;83.73
24422;BME280;12600;53.326;-6.298;2023-11-21T06:17:13;102448.75;;;8.12;84.17
24422;BME280;12600;53.326;-6.298;2023-11-21T06:20:03;102449.22;;;8.09;84.10
24422;BME280;12600;53.326;-6.298;2023-11-21T06:22:58;102451.31;;;8.02;84.67
24422;BME280;12600;53.326;-6.298;2023-11-21T06:25:51;102451.31;;;8.02;84.36
24422;BME280;12600;53.326;-6.298;2023-11-21T06:28:41;102462.69;;;7.99;84.35
24422;BME280;12600;53.326;-6.298;2023-11-21T06:31:30;102470.53;;;7.96;84.90
24422;BME280;12600;53.326;-6.298;2023-11-21T06:34:20;102472.66;;;7.94;84.58
24422;BME280;12600;53.326;-6.298;2023-11-21T06:37:10;102469.72;;;7.95;84.76
24422;BME280;12600;53.326;-6.298;2023-11-21T06:40:01;102469.88;;;7.89;84.72
24422;BME280;12600;53.326;-6.298;2023-11-21T06:42:51;102475.31;;;7.89;84.73
24422;BME280;12600;53.326;-6.298;2023-11-21T06:45:41;102464.06;;;7.85;84.94
24422;BME280;12600;53.326;-6.298;2023-11-21T06:48:30;102461.97;;;7.87;85.08
24422;BME280;12600;53.326;-6.298;2023-11-21T06:51:19;102475.63;;;7.92;84.92
24422;BME280;12600;53.326;-6.298;2023-11-21T06:54:09;102481.44;;;7.96;84.84
24422;BME280;12600;53.326;-6.298;2023-11-21T06:57:00;102489.09;;;7.99;84.57
24422;BME280;12600;53.326;-6.298;2023-11-21T06:59:49;102497.25;;;7.99;84.22
24422;BME280;12600;53.326;-6.298;2023-11-21T07:02:39;102492.06;;;7.97;84.29
24422;BME280;12600;53.326;-6.298;2023-11-21T07:05:29;102497.50;;;7.97;84.02
24422;BME280;12600;53.326;-6.298;2023-11-21T07:08:18;102506.16;;;7.94;84.18
24422;BME280;12600;53.326;-6.298;2023-11-21T07:11:08;102507.47;;;7.92;83.63
24422;BME280;12600;53.326;-6.298;2023-11-21T07:13:58;102513.88;;;7.85;84.11
24422;BME280;12600;53.326;-6.298;2023-11-21T07:16:50;102512.25;;;7.84;84.13
24422;BME280;12600;53.326;-6.298;2023-11-21T07:19:40;102523.38;;;7.83;84.21
24422;BME280;12600;53.326;-6.298;2023-11-21T07:22:30;102519.16;;;7.75;83.91
24422;BME280;12600;53.326;-6.298;2023-11-21T07:25:19;102530.38;;;7.79;84.27
24422;BME280;12600;53.326;-6.298;2023-11-21T07:28:10;102528.72;;;7.78;83.95
24422;BME280;12600;53.326;-6.298;2023-11-21T07:31:00;102540.91;;;7.75;84.08
24422;BME280;12600;53.326;-6.298;2023-11-21T07:33:53;102552.06;;;7.74;84.41
24422;BME280;12600;53.326;-6.298;2023-11-21T07:36:45;102557.16;;;7.70;84.38
24422;BME280;12600;53.326;-6.298;2023-11-21T07:39:34;102563.91;;;7.68;84.71
24422;BME280;12600;53.326;-6.298;2023-11-21T07:42:24;102554.59;;;7.64;84.81
24422;BME280;12600;53.326;-6.298;2023-11-21T07:45:14;102558.38;;;7.63;85.07
24422;BME280;12600;53.326;-6.298;2023-11-21T07:48:05;102560.16;;;7.57;85.18
24422;BME280;12600;53.326;-6.298;2023-11-21T07:50:55;102571.88;;;7.57;85.39
24422;BME280;12600;53.326;-6.298;2023-11-21T07:53:44;102577.56;;;7.56;85.50
24422;BME280;12600;53.326;-6.298;2023-11-21T07:56:33;102566.56;;;7.51;85.37
24422;BME280;12600;53.326;-6.298;2023-11-21T07:59:23;102577.44;;;7.51;85.67
24422;BME280;12600;53.326;-6.298;2023-11-21T08:02:12;102581.72;;;7.47;86.20
24422;BME280;12600;53.326;-6.298;2023-11-21T08:05:04;102586.22;;;7.41;86.42
24422;BME280;12600;53.326;-6.298;2023-11-21T08:08:02;102592.00;;;7.45;85.92
24422;BME280;12600;53.326;-6.298;2023-11-21T08:10:52;102583.84;;;7.45;86.00
24422;BME280;12600;53.326;-6.298;2023-11-21T08:13:44;102585.50;;;7.46;86.52
24422;BME280;12600;53.326;-6.298;2023-11-21T08:16:34;102586.34;;;7.46;85.98
24422;BME280;12600;53.326;-6.298;2023-11-21T08:19:23;102602.66;;;7.46;86.15
24422;BME280;12600;53.326;-6.298;2023-11-21T08:22:15;102595.53;;;7.45;86.63
24422;BME280;12600;53.326;-6.298;2023-11-21T08:25:06;102604.78;;;7.44;86.29
24422;BME280;12600;53.326;-6.298;2023-11-21T08:27:56;102605.13;;;7.48;86.08
24422;BME280;12600;53.326;-6.298;2023-11-21T08:30:45;102619.31;;;7.50;86.68
24422;BME280;12600;53.326;-6.298;2023-11-21T08:33:34;102621.31;;;7.54;86.42
24422;BME280;12600;53.326;-6.298;2023-11-21T08:36:25;102627.09;;;7.58;86.32
24422;BME280;12600;53.326;-6.298;2023-11-21T08:39:16;102621.78;;;7.63;86.50
24422;BME280;12600;53.326;-6.298;2023-11-21T08:42:07;102637.50;;;7.61;86.30
24422;BME280;12600;53.326;-6.298;2023-11-21T08:44:56;102625.31;;;7.64;86.82
24422;BME280;12600;53.326;-6.298;2023-11-21T08:47:46;102647.41;;;7.67;86.94
24422;BME280;12600;53.326;-6.298;2023-11-21T08:50:36;102651.31;;;7.71;86.79
24422;BME280;12600;53.326;-6.298;2023-11-21T08:53:25;102649.19;;;7.73;86.80
24422;BME280;12600;53.326;-6.298;2023-11-21T08:56:16;102655.13;;;7.70;87.28
24422;BME280;12600;53.326;-6.298;2023-11-21T08:59:06;102658.03;;;7.80;87.06
24422;BME280;12600;53.326;-6.298;2023-11-21T09:01:56;102656.72;;;7.83;86.80
24422;BME280;12600;53.326;-6.298;2023-11-21T09:04:45;102659.56;;;7.88;87.02
24422;BME280;12600;53.326;-6.298;2023-11-21T09:07:35;102658.38;;;7.84;87.39
24422;BME280;12600;53.326;-6.298;2023-11-21T09:10:25;102659.19;;;7.84;87.43
24422;BME280;12600;53.326;-6.298;2023-11-21T09:13:18;102668.28;;;7.90;87.85
24422;BME280;12600;53.326;-6.298;2023-11-21T09:16:10;102687.22;;;7.97;87.69
24422;BME280;12600;53.326;-6.298;2023-11-21T09:18:59;102681.75;;;7.97;87.50
24422;BME280;12600;53.326;-6.298;2023-11-21T09:21:49;102684.09;;;8.05;87.65
24422;BME280;12600;53.326;-6.298;2023-11-21T09:24:39;102679.59;;;8.10;87.83
24422;BME280;12600;53.326;-6.298;2023-11-21T09:27:28;102667.38;;;8.13;87.81
24422;BME280;12600;53.326;-6.298;2023-11-21T09:30:19;102670.28;;;8.23;87.43
24422;BME280;12600;53.326;-6.298;2023-11-21T09:33:09;102668.75;;;8.27;87.69
24422;BME280;12600;53.326;-6.298;2023-11-21T09:35:59;102674.25;;;8.32;87.51
24422;BME280;12600;53.326;-6.298;2023-11-21T09:38:50;102678.53;;;8.40;87.31
24422;BME280;12600;53.326;-6.298;2023-11-21T09:41:44;102683.56;;;8.48;87.29
24422;BME280;12600;53.326;-6.298;2023-11-21T09:44:45;102676.22;;;8.49;86.85
24422;BME280;12600;53.326;-6.298;2023-11-21T09:47:39;102670.31;;;8.52;86.83
24422;BME280;12600;53.326;-6.298;2023-11-21T09:50:28;102655.75;;;8.46;87.05
24422;BME280;12600;53.326;-6.298;2023-11-21T09:53:19;102659.66;;;8.50;86.74
24422;BME280;12600;53.326;-6.298;2023-11-21T09:56:10;102641.88;;;8.48;87.08
24422;BME280;12600;53.326;-6.298;2023-11-21T09:59:00;102659.00;;;8.60;86.92
24422;BME280;12600;53.326;-6.298;2023-11-21T10:01:53;102660.41;;;8.62;86.75
24422;BME280;12600;53.326;-6.298;2023-11-21T10:04:44;102663.69;;;8.64;86.83
24422;BME280;12600;53.326;-6.298;2023-11-21T10:07:34;102656.84;;;8.62;86.90
24422;BME280;12600;53.326;-6.298;2023-11-21T10:10:25;102659.72;;;8.72;86.70
24422;BME280;12600;53.326;-6.298;2023-11-21T10:13:15;102663.63;;;8.76;86.74
24422;BME280;12600;53.326;-6.298;2023-11-21T10:16:10;102654.94;;;8.79;86.69
24422;BME280;12600;53.326;-6.298;2023-11-21T10:19:04;102659.56;;;8.79;86.58
24422;BME280;12600;53.326;-6.298;2023-11-21T10:22:01;102676.59;;;8.86;86.81
24422;BME280;12600;53.326;-6.298;2023-11-21T10:24:51;102680.25;;;8.91;86.50
24422;BME280;12600;53.326;-6.298;2023-11-21T10:27:41;102666.00;;;8.89;86.51
24422;BME280;12600;53.326;-6.298;2023-11-21T10:30:33;102661.22;;;8.96;86.39
24422;BME280;12600;53.326;-6.298;2023-11-21T10:33:28;102648.66;;;8.95;86.32
24422;BME280;12600;53.326;-6.298;2023-11-21T10:36:26;102649.41;;;9.08;86.17
24422;BME280;12600;53.326;-6.298;2023-11-21T10:39:18;102647.34;;;9.15;86.32
24422;BME280;12600;53.326;-6.298;2023-11-21T10:42:09;102662.19;;;9.24;86.02
24422;BME280;12600;53.326;-6.298;2023-11-21T10:44:58;102662.25;;;9.29;85.77
24422;BME280;12600;53.326;-6.298;2023-11-21T10:47:51;102671.06;;;9.36;85.38
24422;BME280;12600;53.326;-6.298;2023-11-21T10:50:41;102656.13;;;9.39;85.54
24422;BME280;12600;53.326;-6.298;2023-11-21T10:53:31;102676.50;;;9.53;85.43
24422;BME280;12600;53.326;-6.298;2023-11-21T10:56:23;102673.84;;;9.58;85.01
24422;BME280;12600;53.326;-6.298;2023-11-21T10:59:15;102690.09;;;9.70;85.19
24422;BME280;12600;53.326;-6.298;2023-11-21T11:02:24;102701.63;;;9.77;84.93
24422;BME280;12600;53.326;-6.298;2023-11-21T11:05:20;102688.38;;;9.86;85.09
24422;BME280;12600;53.326;-6.298;2023-11-21T11:08:12;102696.19;;;9.99;85.21
24422;BME280;12600;53.326;-6.298;2023-11-21T11:11:07;102698.16;;;10.03;84.31
24422;BME280;12600;53.326;-6.298;2023-11-21T11:13:59;102703.19;;;10.12;84.02
24422;BME280;12600;53.326;-6.298;2023-11-21T11:16:49;102712.81;;;10.19;84.49
24422;BME280;12600;53.326;-6.298;2023-11-21T11:19:38;102709.97;;;10.31;84.43
24422;BME280;12600;53.326;-6.298;2023-11-21T11:22:37;102706.09;;;10.54;84.01
24422;BME280;12600;53.326;-6.298;2023-11-21T11:25:41;102708.13;;;11.33;83.40
24422;BME280;12600;53.326;-6.298;2023-11-21T11:28:42;102710.25;;;12.41;82.65
24422;BME280;12600;53.326;-6.298;2023-11-21T11:31:39;102692.91;;;13.62;84.24
24422;BME280;12600;53.326;-6.298;2023-11-21T11:34:34;102689.28;;;14.76;82.07
24422;BME280;12600;53.326;-6.298;2023-11-21T11:37:27;102684.38;;;15.79;79.83
24422;BME280;12600;53.326;-6.298;2023-11-21T11:40:17;102692.50;;;16.69;79.33
24422;BME280;12600;53.326;-6.298;2023-11-21T11:43:11;102675.25;;;17.10;65.40
24422;BME280;12600;53.326;-6.298;2023-11-21T11:46:03;102680.31;;;17.49;60.08
24422;BME280;12600;53.326;-6.298;2023-11-21T11:49:03;102672.63;;;17.00;52.89
24422;BME280;12600;53.326;-6.298;2023-11-21T11:55:17;102654.91;;;16.36;57.03
24422;BME280;12600;53.326;-6.298;2023-11-21T11:58:08;102655.13;;;15.59;54.09
24422;BME280;12600;53.326;-6.298;2023-11-21T12:00:57;102657.41;;;15.28;55.65
24422;BME280;12600;53.326;-6.298;2023-11-21T12:07:14;102662.97;;;14.94;59.33
24422;BME280;12600;53.326;-6.298;2023-11-21T12:10:06;102670.84;;;14.76;59.69
24422;BME280;12600;53.326;-6.298;2023-11-21T12:13:00;102660.47;;;14.68;59.78
24422;BME280;12600;53.326;-6.298;2023-11-21T12:15:49;102668.56;;;14.49;59.79
24422;BME280;12600;53.326;-6.298;2023-11-21T12:18:39;102670.34;;;14.30;59.81
24422;BME280;12600;53.326;-6.298;2023-11-21T12:21:29;102677.53;;;14.21;60.77
24422;BME280;12600;53.326;-6.298;2023-11-21T12:24:21;102672.34;;;14.14;61.26
24422;BME280;12600;53.326;-6.298;2023-11-21T12:27:12;102679.25;;;14.07;61.85
24422;BME280;12600;53.326;-6.298;2023-11-21T12:30:02;102672.19;;;13.90;61.09
24422;BME280;12600;53.326;-6.298;2023-11-21T12:32:54;102669.75;;;13.89;61.49
24422;BME280;12600;53.326;-6.298;2023-11-21T12:35:44;102659.53;;;13.94;62.17
24422;BME280;12600;53.326;-6.298;2023-11-21T12:38:37;102663.91;;;13.95;62.23
24422;BME280;12600;53.326;-6.298;2023-11-21T12:41:28;102678.72;;;14.05;61.13
24422;BME280;12600;53.326;-6.298;2023-11-21T12:44:19;102689.16;;;14.08;61.25
24422;BME280;12600;53.326;-6.298;2023-11-21T12:47:08;102688.19;;;14.33;61.45
24422;BME280;12600;53.326;-6.298;2023-11-21T12:49:58;102687.34;;;14.37;60.24
24422;BME280;12600;53.326;-6.298;2023-11-21T12:52:51;102694.78;;;14.37;60.00
24422;BME280;12600;53.326;-6.298;2023-11-21T12:55:43;102696.19;;;14.29;60.00
24422;BME280;12600;53.326;-6.298;2023-11-21T12:58:40;102698.72;;;14.20;60.29
24422;BME280;12600;53.326;-6.298;2023-11-21T13:01:35;102711.63;;;14.20;60.47
24422;BME280;12600;53.326;-6.298;2023-11-21T13:04:31;102708.56;;;14.26;61.15
24422;BME280;12600;53.326;-6.298;2023-11-21T13:07:20;102711.09;;;14.18;60.63
24422;BME280;12600;53.326;-6.298;2023-11-21T13:10:11;102698.50;;;14.12;61.40
24422;BME280;12600;53.326;-6.298;2023-11-21T13:13:04;102696.88;;;14.06;61.31
24422;BME280;12600;53.326;-6.298;2023-11-21T13:15:59;102689.81;;;13.79;61.38
24422;BME280;12600;53.326;-6.298;2023-11-21T13:18:52;102697.63;;;13.57;61.90
24422;BME280;12600;53.326;-6.298;2023-11-21T13:21:42;102699.31;;;13.32;62.06
24422;BME280;12600;53.326;-6.298;2023-11-21T13:24:32;102692.19;;;13.21;63.30
24422;BME280;12600;53.326;-6.298;2023-11-21T13:27:21;102699.31;;;13.07;64.02
24422;BME280;12600;53.326;-6.298;2023-11-21T13:30:14;102694.94;;;12.96;64.40
24422;BME280;12600;53.326;-6.298;2023-11-21T13:33:07;102709.22;;;12.93;65.27
24422;BME280;12600;53.326;-6.298;2023-11-21T13:35:57;102713.88;;;12.87;65.43
24422;BME280;12600;53.326;-6.298;2023-11-21T13:38:50;102715.22;;;12.79;65.63
24422;BME280;12600;53.326;-6.298;2023-11-21T13:41:40;102724.56;;;12.78;66.21
24422;BME280;12600;53.326;-6.298;2023-11-21T13:44:30;102715.22;;;12.74;66.51
24422;BME280;12600;53.326;-6.298;2023-11-21T13:47:25;102709.72;;;12.74;66.76
24422;BME280;12600;53.326;-6.298;2023-11-21T13:50:19;102706.72;;;12.66;66.77
24422;BME280;12600;53.326;-6.298;2023-11-21T13:53:14;102705.09;;;12.70;66.93
24422;BME280;12600;53.326;-6.298;2023-11-21T13:56:09;102705.91;;;12.60;67.27
24422;BME280;12600;53.326;-6.298;2023-11-21T13:59:00;102712.47;;;12.59;67.04
24422;BME280;12600;53.326;-6.298;2023-11-21T14:01:57;102708.59;;;12.50;67.40
24422;BME280;12600;53.326;-6.298;2023-11-21T14:04:48;102717.41;;;12.52;67.76
24422;BME280;12600;53.326;-6.298;2023-11-21T14:07:45;102728.63;;;12.45;67.70
24422;BME280;12600;53.326;-6.298;2023-11-21T14:10:36;102713.56;;;12.53;67.71
24422;BME280;12600;53.326;-6.298;2023-11-21T14:13:30;102710.81;;;12.48;68.16
24422;BME280;12600;53.326;-6.298;2023-11-21T14:16:20;102699.84;;;12.48;68.09
24422;BME280;12600;53.326;-6.298;2023-11-21T14:19:10;102713.56;;;12.53;68.24
24422;BME280;12600;53.326;-6.298;2023-11-21T14:22:04;102727.25;;;12.58;68.53
24422;BME280;12600;53.326;-6.298;2023-11-21T14:24:56;102730.03;;;12.63;68.50
24422;BME280;12600;53.326;-6.298;2023-11-21T14:27:48;102724.81;;;12.67;68.27
24422;BME280;12600;53.326;-6.298;2023-11-21T14:30:37;102731.69;;;12.69;68.36
24422;BME280;12600;53.326;-6.298;2023-11-21T14:33:28;102724.53;;;12.63;67.91
24422;BME280;12600;53.326;-6.298;2023-11-21T14:36:18;102726.19;;;12.64;68.09
24422;BME280;12600;53.326;-6.298;2023-11-21T14:39:07;102730.31;;;12.62;68.19
24422;BME280;12600;53.326;-6.298;2023-11-21T14:42:05;102738.28;;;12.68;68.15
24422;BME280;12600;53.326;-6.298;2023-11-21T14:44:55;102740.44;;;12.66;68.48
24422;BME280;12600;53.326;-6.298;2023-11-21T14:47:51;102739.63;;;12.55;68.66
24422;BME280;12600;53.326;-6.298;2023-11-21T14:50:50;102707.78;;;12.49;68.75
24422;BME280;12600;53.326;-6.298;2023-11-21T14:54:11;102724.25;;;12.49;68.76
24422;BME280;12600;53.326;-6.298;2023-11-21T14:56:59;102706.97;;;12.49;68.79
24422;BME280;12600;53.326;-6.298;2023-11-21T14:59:50;102710.81;;;12.48;68.65